Terminal Aerodrome Forecast
Issued by NWS

Current Version | Previous Version | Text Only | Print | Product List | Glossary Off
Versions: 1 2 3 4 5 6 7 8 9 10 11 12 13 14 15 16 17 18 19 20 21 22 23 24 25 26

000
FTUS41 KRLX 031744
TAFCKB
TAF
KCKB 031744Z 0318/0418 29005KT P6SM -SHRA BKN030
     FM032000 28006KT P6SM BKN035
     FM040300 VRB02KT P6SM BKN035
     FM040600 00000KT P6SM BKN020
     FM040700 00000KT 6SM BR BKN020
     FM040900 00000KT 4SM BR BKN020
     FM041300 00000KT 6SM BR BKN025
     FM041500 VRB03KT P6SM BKN035=

USA.gov is the U.S. government's official web portal to all federal, state and local government web resources and services.